sensor_id;sensor_type;location;lat;lon;timestamp;pressure;altitude;pressure_sealevel;temperature;humidity
72055;BME280;59936;51.490;5.436;2022-09-09T00:03:26;100513.31;;;12.68;100.00
72055;BME280;59936;51.490;5.436;2022-09-09T00:06:12;100516.69;;;12.70;100.00
72055;BME280;59936;51.490;5.436;2022-09-09T00:09:10;100503.78;;;12.67;100.00
72055;BME280;59936;51.490;5.436;2022-09-09T00:10:24;100504.72;;;12.66;100.00
72055;BME280;59936;51.490;5.436;2022-09-09T00:11:40;100509.03;;;12.67;100.00
72055;BME280;59936;51.490;5.436;2022-09-09T00:12:51;100503.00;;;12.65;100.00
72055;BME280;59936;51.490;5.436;2022-09-09T00:14:20;100502.28;;;12.62;100.00
72055;BME280;59936;51.490;5.436;2022-09-09T00:15:37;100500.38;;;12.65;100.00
72055;BME280;59936;51.490;5.436;2022-09-09T00:16:41;100496.88;;;12.66;100.00
72055;BME280;59936;51.490;5.436;2022-09-09T00:18:03;100494.41;;;12.62;100.00
72055;BME280;59936;51.490;5.436;2022-09-09T00:20:35;100488.25;;;12.64;100.00
72055;BME280;59936;51.490;5.436;2022-09-09T00:23:29;100491.81;;;12.62;100.00
72055;BME280;59936;51.490;5.436;2022-09-09T00:24:37;100499.66;;;12.62;100.00
72055;BME280;59936;51.490;5.436;2022-09-09T00:26:53;100500.59;;;12.61;100.00
72055;BME280;59936;51.490;5.436;2022-09-09T00:27:58;100491.81;;;12.62;100.00
72055;BME280;59936;51.490;5.436;2022-09-09T00:29:15;100505.81;;;12.61;100.00
72055;BME280;59936;51.490;5.436;2022-09-09T00:30:37;100501.69;;;12.57;100.00
72055;BME280;59936;51.490;5.436;2022-09-09T00:31:35;100502.53;;;12.58;100.00
72055;BME280;59936;51.490;5.436;2022-09-09T00:32:34;100503.38;;;12.58;100.00
72055;BME280;59936;51.490;5.436;2022-09-09T00:33:32;100501.63;;;12.59;100.00
72055;BME280;59936;51.490;5.436;2022-09-09T00:34:31;100493.00;;;12.57;100.00
72055;BME280;59936;51.490;5.436;2022-09-09T00:35:34;100499.91;;;12.58;100.00
72055;BME280;59936;51.490;5.436;2022-09-09T00:36:35;100490.13;;;12.61;100.00
72055;BME280;59936;51.490;5.436;2022-09-09T00:37:35;100491.97;;;12.59;100.00
72055;BME280;59936;51.490;5.436;2022-09-09T00:38:35;100491.03;;;12.60;100.00
72055;BME280;59936;51.490;5.436;2022-09-09T00:39:42;100493.66;;;12.60;100.00
72055;BME280;59936;51.490;5.436;2022-09-09T00:43:33;100486.72;;;12.59;100.00
72055;BME280;59936;51.490;5.436;2022-09-09T00:44:35;100492.13;;;12.56;100.00
72055;BME280;59936;51.490;5.436;2022-09-09T00:58:11;100472.31;;;12.52;100.00
72055;BME280;59936;51.490;5.436;2022-09-09T01:00:58;100474.75;;;12.55;100.00
72055;BME280;59936;51.490;5.436;2022-09-09T01:02:26;100477.38;;;12.55;100.00
72055;BME280;59936;51.490;5.436;2022-09-09T01:04:36;100474.41;;;12.61;100.00
72055;BME280;59936;51.490;5.436;2022-09-09T01:06:45;100476.25;;;12.59;100.00
72055;BME280;59936;51.490;5.436;2022-09-09T01:07:57;100471.03;;;12.59;100.00
72055;BME280;59936;51.490;5.436;2022-09-09T01:09:17;100478.72;;;12.62;100.00
72055;BME280;59936;51.490;5.436;2022-09-09T01:10:35;100474.41;;;12.61;100.00
72055;BME280;59936;51.490;5.436;2022-09-09T01:12:12;100470.69;;;12.66;100.00
72055;BME280;59936;51.490;5.436;2022-09-09T01:13:33;100471.72;;;12.63;100.00
72055;BME280;59936;51.490;5.436;2022-09-09T01:15:38;100479.66;;;12.61;100.00
72055;BME280;59936;51.490;5.436;2022-09-09T01:16:40;100471.72;;;12.63;100.00
72055;BME280;59936;51.490;5.436;2022-09-09T01:18:49;100475.75;;;12.69;100.00
72055;BME280;59936;51.490;5.436;2022-09-09T01:20:02;100474.91;;;12.68;100.00
72055;BME280;59936;51.490;5.436;2022-09-09T01:21:27;100472.38;;;12.67;100.00
72055;BME280;59936;51.490;5.436;2022-09-09T01:22:51;100468.25;;;12.62;100.00
72055;BME280;59936;51.490;5.436;2022-09-09T01:26:45;100466.56;;;12.61;100.00
72055;BME280;59936;51.490;5.436;2022-09-09T01:27:43;100461.31;;;12.61;100.00
72055;BME280;59936;51.490;5.436;2022-09-09T01:28:49;100468.25;;;12.62;100.00
72055;BME280;59936;51.490;5.436;2022-09-09T01:29:49;100462.91;;;12.64;100.00
72055;BME280;59936;51.490;5.436;2022-09-09T01:30:47;100466.47;;;12.63;100.00
72055;BME280;59936;51.490;5.436;2022-09-09T01:31:55;100465.63;;;12.62;100.00
72055;BME280;59936;51.490;5.436;2022-09-09T01:32:56;100465.78;;;12.59;100.00
72055;BME280;59936;51.490;5.436;2022-09-09T01:33:55;100461.41;;;12.60;100.00
72055;BME280;59936;51.490;5.436;2022-09-09T01:34:53;100466.56;;;12.61;100.00
72055;BME280;59936;51.490;5.436;2022-09-09T01:35:54;100463.94;;;12.61;100.00
72055;BME280;59936;51.490;5.436;2022-09-09T01:38:05;100460.38;;;12.62;100.00
72055;BME280;59936;51.490;5.436;2022-09-09T01:39:03;100455.31;;;12.59;100.00
72055;BME280;59936;51.490;5.436;2022-09-09T01:40:01;100455.16;;;12.62;100.00
72055;BME280;59936;51.490;5.436;2022-09-09T01:40:58;100453.47;;;12.61;100.00
72055;BME280;59936;51.490;5.436;2022-09-09T01:41:56;100457.00;;;12.60;100.00
72055;BME280;59936;51.490;5.436;2022-09-09T01:42:55;100455.22;;;12.61;100.00
72055;BME280;59936;51.490;5.436;2022-09-09T01:43:54;100453.47;;;12.61;100.00
72055;BME280;59936;51.490;5.436;2022-09-09T01:44:52;100448.25;;;12.61;100.00
72055;BME280;59936;51.490;5.436;2022-09-09T01:45:54;100457.00;;;12.60;100.00
72055;BME280;59936;51.490;5.436;2022-09-09T01:46:55;100450.00;;;12.61;100.00
72055;BME280;59936;51.490;5.436;2022-09-09T01:47:53;100452.69;;;12.59;100.00
72055;BME280;59936;51.490;5.436;2022-09-09T01:48:52;100451.75;;;12.60;100.00
72055;BME280;59936;51.490;5.436;2022-09-09T01:49:51;100448.41;;;12.58;100.00
72055;BME280;59936;51.490;5.436;2022-09-09T01:50:49;100455.31;;;12.59;100.00
72055;BME280;59936;51.490;5.436;2022-09-09T01:51:50;100450.09;;;12.59;100.00
72055;BME280;59936;51.490;5.436;2022-09-09T01:52:52;100443.00;;;12.61;100.00
72055;BME280;59936;51.490;5.436;2022-09-09T01:53:54;100451.75;;;12.60;100.00
72055;BME280;59936;51.490;5.436;2022-09-09T01:54:51;100452.53;;;12.62;100.00
72055;BME280;59936;51.490;5.436;2022-09-09T01:56:14;100443.91;;;12.60;100.00
72055;BME280;59936;51.490;5.436;2022-09-09T01:59:44;100446.72;;;12.57;100.00
72055;BME280;59936;51.490;5.436;2022-09-09T02:00:16;100445.03;;;12.56;100.00
72055;BME280;59936;51.490;5.436;2022-09-09T02:03:57;100443.34;;;12.55;100.00
72055;BME280;59936;51.490;5.436;2022-09-09T02:06:39;100439.13;;;12.53;100.00
72055;BME280;59936;51.490;5.436;2022-09-09T02:07:39;100440.16;;;12.50;100.00
72055;BME280;59936;51.490;5.436;2022-09-09T02:08:45;100437.53;;;12.50;100.00
72055;BME280;59936;51.490;5.436;2022-09-09T02:09:50;100430.72;;;12.47;100.00
72055;BME280;59936;51.490;5.436;2022-09-09T02:11:07;100433.03;;;12.52;100.00
72055;BME280;59936;51.490;5.436;2022-09-09T02:12:13;100422.78;;;12.49;100.00
72055;BME280;59936;51.490;5.436;2022-09-09T02:13:17;100434.22;;;12.46;100.00
72055;BME280;59936;51.490;5.436;2022-09-09T02:14:23;100430.63;;;12.49;100.00
72055;BME280;59936;51.490;5.436;2022-09-09T02:15:34;100428.19;;;12.46;100.00
72055;BME280;59936;51.490;5.436;2022-09-09T02:16:44;100430.03;;;12.44;100.00
72055;BME280;59936;51.490;5.436;2022-09-09T02:17:49;100428.00;;;12.49;100.00
72055;BME280;59936;51.490;5.436;2022-09-09T02:19:11;100429.69;;;12.50;100.00
72055;BME280;59936;51.490;5.436;2022-09-09T02:20:14;100440.31;;;12.47;100.00
72055;BME280;59936;51.490;5.436;2022-09-09T02:21:13;100445.56;;;12.47;100.00
72055;BME280;59936;51.490;5.436;2022-09-09T02:22:13;100442.16;;;12.45;100.00
72055;BME280;59936;51.490;5.436;2022-09-09T02:23:13;100441.19;;;12.47;100.00
72055;BME280;59936;51.490;5.436;2022-09-09T02:24:14;100436.94;;;12.45;100.00
72055;BME280;59936;51.490;5.436;2022-09-09T02:25:15;100438.66;;;12.46;100.00
72055;BME280;59936;51.490;5.436;2022-09-09T02:26:16;100440.50;;;12.44;100.00
72055;BME280;59936;51.490;5.436;2022-09-09T02:27:20;100439.47;;;12.46;100.00
72055;BME280;59936;51.490;5.436;2022-09-09T02:28:20;100440.31;;;12.47;100.00
72055;BME280;59936;51.490;5.436;2022-09-09T02:29:26;100435.09;;;12.47;100.00
72055;BME280;59936;51.490;5.436;2022-09-09T02:30:30;100430.97;;;12.43;100.00
72055;BME280;59936;51.490;5.436;2022-09-09T02:31:32;100427.50;;;12.42;100.00
72055;BME280;59936;51.490;5.436;2022-09-09T02:32:34;100431.97;;;12.40;100.00
72055;BME280;59936;51.490;5.436;2022-09-09T02:33:38;100428.50;;;12.40;100.00
72055;BME280;59936;51.490;5.436;2022-09-09T02:34:45;100426.47;;;12.45;100.00
72055;BME280;59936;51.490;5.436;2022-09-09T02:35:49;100423.84;;;12.45;100.00
72055;BME280;59936;51.490;5.436;2022-09-09T02:36:49;100426.66;;;12.42;100.00
72055;BME280;59936;51.490;5.436;2022-09-09T02:37:53;100428.19;;;12.46;100.00
72055;BME280;59936;51.490;5.436;2022-09-09T02:38:54;100424.78;;;12.44;100.00
72055;BME280;59936;51.490;5.436;2022-09-09T02:39:52;100424.88;;;12.42;100.00
72055;BME280;59936;51.490;5.436;2022-09-09T02:40:50;100426.59;;;12.43;100.00
72055;BME280;59936;51.490;5.436;2022-09-09T02:41:47;100424.78;;;12.44;100.00
72055;BME280;59936;51.490;5.436;2022-09-09T02:42:46;100421.16;;;12.46;100.00
72055;BME280;59936;51.490;5.436;2022-09-09T02:43:45;100423.75;;;12.46;100.00
72055;BME280;59936;51.490;5.436;2022-09-09T02:44:42;100419.63;;;12.42;100.00
72055;BME280;59936;51.490;5.436;2022-09-09T02:45:51;100413.50;;;12.43;100.00
72055;BME280;59936;51.490;5.436;2022-09-09T02:50:26;100422.84;;;12.47;100.00
72055;BME280;59936;51.490;5.436;2022-09-09T02:54:27;100417.03;;;12.42;100.00
72055;BME280;59936;51.490;5.436;2022-09-09T02:55:41;100419.72;;;12.41;100.00
72055;BME280;59936;51.490;5.436;2022-09-09T02:56:46;100424.63;;;12.47;100.00
72055;BME280;59936;51.490;5.436;2022-09-09T02:57:48;100419.38;;;12.47;100.00
72055;BME280;59936;51.490;5.436;2022-09-09T02:58:48;100429.28;;;12.42;100.00
72055;BME280;59936;51.490;5.436;2022-09-09T02:59:49;100426.47;;;12.45;100.00
72055;BME280;59936;51.490;5.436;2022-09-09T03:00:50;100431.69;;;12.45;100.00
72055;BME280;59936;51.490;5.436;2022-09-09T03:01:48;100426.28;;;12.48;100.00
72055;BME280;59936;51.490;5.436;2022-09-09T03:02:45;100433.03;;;12.52;100.00
72055;BME280;59936;51.490;5.436;2022-09-09T03:03:43;100431.44;;;12.49;100.00
72055;BME280;59936;51.490;5.436;2022-09-09T03:04:41;100435.00;;;12.48;100.00
72055;BME280;59936;51.490;5.436;2022-09-09T03:05:42;100428.00;;;12.49;100.00
72055;BME280;59936;51.490;5.436;2022-09-09T03:06:40;100430.50;;;12.51;100.00
72055;BME280;59936;51.490;5.436;2022-09-09T03:07:37;100432.31;;;12.50;100.00
72055;BME280;59936;51.490;5.436;2022-09-09T03:08:37;100430.63;;;12.49;100.00
72055;BME280;59936;51.490;5.436;2022-09-09T03:09:34;100427.81;;;12.52;100.00
72055;BME280;59936;51.490;5.436;2022-09-09T03:10:32;100431.19;;;12.54;100.00
72055;BME280;59936;51.490;5.436;2022-09-09T03:11:30;100433.03;;;12.52;100.00
72055;BME280;59936;51.490;5.436;2022-09-09T03:12:27;100429.50;;;12.53;100.00
72055;BME280;59936;51.490;5.436;2022-09-09T03:13:25;100428.56;;;12.54;100.00
72055;BME280;59936;51.490;5.436;2022-09-09T03:14:22;100426.91;;;12.53;100.00
72055;BME280;59936;51.490;5.436;2022-09-09T03:15:22;100426.97;;;12.52;100.00
72055;BME280;59936;51.490;5.436;2022-09-09T03:16:19;100426.97;;;12.52;100.00
72055;BME280;59936;51.490;5.436;2022-09-09T03:17:18;100426.91;;;12.53;100.00
72055;BME280;59936;51.490;5.436;2022-09-09T03:18:15;100427.81;;;12.52;100.00
72055;BME280;59936;51.490;5.436;2022-09-09T03:19:13;100432.00;;;12.55;100.00
72055;BME280;59936;51.490;5.436;2022-09-09T03:20:10;100431.94;;;12.56;100.00
72055;BME280;59936;51.490;5.436;2022-09-09T03:21:08;100432.69;;;12.58;100.00
72055;BME280;59936;51.490;5.436;2022-09-09T03:22:05;100436.25;;;12.57;100.00
72055;BME280;59936;51.490;5.436;2022-09-09T03:23:02;100438.88;;;12.57;100.00
72055;BME280;59936;51.490;5.436;2022-09-09T03:24:00;100441.50;;;12.57;100.00
72055;BME280;59936;51.490;5.436;2022-09-09T03:25:00;100440.47;;;12.60;100.00
72055;BME280;59936;51.490;5.436;2022-09-09T03:25:59;100444.03;;;12.59;100.00
72055;BME280;59936;51.490;5.436;2022-09-09T03:26:57;100440.47;;;12.60;100.00
72055;BME280;59936;51.490;5.436;2022-09-09T03:27:54;100442.16;;;12.61;100.00
72055;BME280;59936;51.490;5.436;2022-09-09T03:28:52;100439.44;;;12.62;100.00
72055;BME280;59936;51.490;5.436;2022-09-09T03:29:50;100435.06;;;12.63;100.00
72055;BME280;59936;51.490;5.436;2022-09-09T03:30:48;100437.56;;;12.65;100.00
72055;BME280;59936;51.490;5.436;2022-09-09T03:31:46;100441.81;;;12.67;100.00
72055;BME280;59936;51.490;5.436;2022-09-09T03:32:43;100438.34;;;12.67;100.00
72055;BME280;59936;51.490;5.436;2022-09-09T03:33:41;100438.34;;;12.67;100.00
72055;BME280;59936;51.490;5.436;2022-09-09T03:34:39;100440.94;;;12.67;100.00
72055;BME280;59936;51.490;5.436;2022-09-09T03:35:37;100437.41;;;12.68;100.00
72055;BME280;59936;51.490;5.436;2022-09-09T03:36:34;100436.38;;;12.70;100.00
72055;BME280;59936;51.490;5.436;2022-09-09T03:37:32;100440.88;;;12.68;100.00
72055;BME280;59936;51.490;5.436;2022-09-09T03:38:29;100439.84;;;12.71;100.00
72055;BME280;59936;51.490;5.436;2022-09-09T03:39:26;100444.13;;;12.72;100.00
72055;BME280;59936;51.490;5.436;2022-09-09T03:40:24;100447.53;;;12.74;100.00
72055;BME280;59936;51.490;5.436;2022-09-09T03:41:22;100432.00;;;12.71;100.00
72055;BME280;59936;51.490;5.436;2022-09-09T03:42:21;100429.47;;;12.69;100.00
72055;BME280;59936;51.490;5.436;2022-09-09T03:43:18;100433.88;;;12.69;100.00
72055;BME280;59936;51.490;5.436;2022-09-09T03:44:16;100439.00;;;12.70;100.00
72055;BME280;59936;51.490;5.436;2022-09-09T03:45:14;100433.66;;;12.72;100.00
72055;BME280;59936;51.490;5.436;2022-09-09T03:46:11;100430.97;;;12.73;100.00
72055;BME280;59936;51.490;5.436;2022-09-09T03:47:09;100430.97;;;12.73;100.00
72055;BME280;59936;51.490;5.436;2022-09-09T03:48:06;100438.56;;;12.78;100.00
72055;BME280;59936;51.490;5.436;2022-09-09T03:49:03;100432.47;;;12.78;100.00
72055;BME280;59936;51.490;5.436;2022-09-09T03:50:01;100435.16;;;12.76;100.00
72055;BME280;59936;51.490;5.436;2022-09-09T03:50:58;100437.78;;;12.76;100.00
72055;BME280;59936;51.490;5.436;2022-09-09T03:51:58;100442.13;;;12.77;100.00
72055;BME280;59936;51.490;5.436;2022-09-09T03:52:55;100436.88;;;12.77;100.00
72055;BME280;59936;51.490;5.436;2022-09-09T03:53:53;100438.56;;;12.78;100.00
72055;BME280;59936;51.490;5.436;2022-09-09T03:54:53;100431.63;;;12.77;100.00
72055;BME280;59936;51.490;5.436;2022-09-09T03:55:52;100430.69;;;12.78;100.00
72055;BME280;59936;51.490;5.436;2022-09-09T03:56:56;100431.72;;;12.75;100.00
72055;BME280;59936;51.490;5.436;2022-09-09T03:57:55;100433.31;;;12.78;100.00
72055;BME280;59936;51.490;5.436;2022-09-09T03:58:52;100435.00;;;12.79;100.00
72055;BME280;59936;51.490;5.436;2022-09-09T03:59:49;100429.66;;;12.81;100.00
72055;BME280;59936;51.490;5.436;2022-09-09T04:01:53;100435.00;;;12.79;100.00
72055;BME280;59936;51.490;5.436;2022-09-09T04:02:50;100439.41;;;12.79;100.00
72055;BME280;59936;51.490;5.436;2022-09-09T04:03:51;100428.94;;;12.79;100.00
72055;BME280;59936;51.490;5.436;2022-09-09T04:04:49;100434.25;;;12.77;100.00
72055;BME280;59936;51.490;5.436;2022-09-09T04:05:49;100435.16;;;12.76;100.00
72055;BME280;59936;51.490;5.436;2022-09-09T04:06:46;100429.94;;;12.76;100.00
72055;BME280;59936;51.490;5.436;2022-09-09T04:07:45;100424.91;;;12.73;100.00
72055;BME280;59936;51.490;5.436;2022-09-09T04:08:42;100431.72;;;12.75;100.00
72055;BME280;59936;51.490;5.436;2022-09-09T04:09:40;100426.56;;;12.74;100.00
72055;BME280;59936;51.490;5.436;2022-09-09T04:10:37;100421.34;;;12.74;100.00
72055;BME280;59936;51.490;5.436;2022-09-09T04:11:35;100424.91;;;12.73;100.00
72055;BME280;59936;51.490;5.436;2022-09-09T04:12:33;100420.50;;;12.73;100.00
72055;BME280;59936;51.490;5.436;2022-09-09T04:13:33;100428.81;;;12.80;100.00
72055;BME280;59936;51.490;5.436;2022-09-09T04:14:31;100433.31;;;12.78;100.00
72055;BME280;59936;51.490;5.436;2022-09-09T04:15:29;100428.09;;;12.78;100.00
72055;BME280;59936;51.490;5.436;2022-09-09T04:16:27;100433.31;;;12.78;100.00
72055;BME280;59936;51.490;5.436;2022-09-09T04:17:24;100422.84;;;12.78;100.00
72055;BME280;59936;51.490;5.436;2022-09-09T04:18:22;100424.53;;;12.79;100.00
72055;BME280;59936;51.490;5.436;2022-09-09T04:19:20;100419.38;;;12.78;100.00
72055;BME280;59936;51.490;5.436;2022-09-09T04:20:18;100417.59;;;12.78;100.00
72055;BME280;59936;51.490;5.436;2022-09-09T04:21:16;100420.22;;;12.78;100.00
72055;BME280;59936;51.490;5.436;2022-09-09T04:22:14;100426.41;;;12.77;100.00
72055;BME280;59936;51.490;5.436;2022-09-09T04:23:11;100422.00;;;12.78;100.00
72055;BME280;59936;51.490;5.436;2022-09-09T04:24:09;100420.16;;;12.80;100.00
72055;BME280;59936;51.490;5.436;2022-09-09T04:25:07;100416.59;;;12.81;100.00
72055;BME280;59936;51.490;5.436;2022-09-09T04:26:05;100422.69;;;12.81;100.00
72055;BME280;59936;51.490;5.436;2022-09-09T04:27:03;100420.78;;;12.83;100.00
72055;BME280;59936;51.490;5.436;2022-09-09T04:28:00;100422.50;;;12.84;100.00
72055;BME280;59936;51.490;5.436;2022-09-09T04:28:59;100411.09;;;12.85;100.00
72055;BME280;59936;51.490;5.436;2022-09-09T04:29:57;100411.91;;;12.86;100.00
72055;BME280;59936;51.490;5.436;2022-09-09T04:30:55;100420.53;;;12.88;100.00
72055;BME280;59936;51.490;5.436;2022-09-09T04:31:53;100409.13;;;12.89;100.00
72055;BME280;59936;51.490;5.436;2022-09-09T04:32:51;100414.25;;;12.91;100.00
72055;BME280;59936;51.490;5.436;2022-09-09T04:33:49;100414.34;;;12.89;100.00
72055;BME280;59936;51.490;5.436;2022-09-09T04:34:47;100409.97;;;12.90;100.00
72055;BME280;59936;51.490;5.436;2022-09-09T04:35:46;100406.50;;;12.89;100.00
72055;BME280;59936;51.490;5.436;2022-09-09T04:36:45;100408.28;;;12.88;100.00
72055;BME280;59936;51.490;5.436;2022-09-09T04:37:42;100410.13;;;12.86;100.00
72055;BME280;59936;51.490;5.436;2022-09-09T04:38:40;100404.06;;;12.86;100.00
72055;BME280;59936;51.490;5.436;2022-09-09T04:39:37;100406.59;;;12.87;100.00
72055;BME280;59936;51.490;5.436;2022-09-09T04:40:35;100406.59;;;12.87;100.00
72055;BME280;59936;51.490;5.436;2022-09-09T04:41:33;100407.34;;;12.90;100.00
72055;BME280;59936;51.490;5.436;2022-09-09T04:42:35;100404.81;;;12.88;100.00
72055;BME280;59936;51.490;5.436;2022-09-09T04:43:33;100404.72;;;12.90;100.00
72055;BME280;59936;51.490;5.436;2022-09-09T04:44:31;100397.69;;;12.90;100.00
72055;BME280;59936;51.490;5.436;2022-09-09T04:45:28;100399.50;;;12.90;100.00
72055;BME280;59936;51.490;5.436;2022-09-09T04:46:26;100404.72;;;12.90;100.00
72055;BME280;59936;51.490;5.436;2022-09-09T04:47:24;100411.66;;;12.91;100.00
72055;BME280;59936;51.490;5.436;2022-09-09T04:48:21;100407.25;;;12.91;100.00
72055;BME280;59936;51.490;5.436;2022-09-09T04:49:18;100406.41;;;12.91;100.00
72055;BME280;59936;51.490;5.436;2022-09-09T04:50:16;100406.41;;;12.91;100.00
72055;BME280;59936;51.490;5.436;2022-09-09T04:51:14;100398.56;;;12.91;100.00
72055;BME280;59936;51.490;5.436;2022-09-09T04:52:12;100405.47;;;12.92;100.00
72055;BME280;59936;51.490;5.436;2022-09-09T04:53:09;100401.09;;;12.92;100.00
72055;BME280;59936;51.490;5.436;2022-09-09T04:54:06;100399.22;;;12.94;100.00
72055;BME280;59936;51.490;5.436;2022-09-09T04:55:04;100401.94;;;12.93;100.00
72055;BME280;59936;51.490;5.436;2022-09-09T04:56:07;100403.63;;;12.94;100.00
72055;BME280;59936;51.490;5.436;2022-09-09T04:57:10;100404.34;;;12.96;100.00
72055;BME280;59936;51.490;5.436;2022-09-09T04:58:08;100400.06;;;12.95;100.00
72055;BME280;59936;51.490;5.436;2022-09-09T04:59:05;100401.00;;;12.94;100.00
72055;BME280;59936;51.490;5.436;2022-09-09T05:00:03;100399.09;;;12.96;100.00
72055;BME280;59936;51.490;5.436;2022-09-09T05:01:06;100397.25;;;12.98;100.00
72055;BME280;59936;51.490;5.436;2022-09-09T05:02:05;100397.25;;;12.98;100.00
72055;BME280;59936;51.490;5.436;2022-09-09T05:03:04;100392.03;;;12.98;100.00
72055;BME280;59936;51.490;5.436;2022-09-09T05:04:02;100393.69;;;12.99;100.00
72055;BME280;59936;51.490;5.436;2022-09-09T05:05:00;100391.84;;;13.01;100.00
72055;BME280;59936;51.490;5.436;2022-09-09T05:06:09;100390.13;;;13.00;100.00
72055;BME280;59936;51.490;5.436;2022-09-09T05:07:07;100395.50;;;12.98;100.00
72055;BME280;59936;51.490;5.436;2022-09-09T05:08:06;100399.78;;;12.99;100.00
72055;BME280;59936;51.490;5.436;2022-09-09T05:09:05;100396.22;;;13.00;100.00
72055;BME280;59936;51.490;5.436;2022-09-09T05:10:03;100402.41;;;12.99;100.00
72055;BME280;59936;51.490;5.436;2022-09-09T05:11:02;100402.31;;;13.01;100.00
72055;BME280;59936;51.490;5.436;2022-09-09T05:11:59;100399.69;;;13.01;100.00
72055;BME280;59936;51.490;5.436;2022-09-09T05:12:57;100397.06;;;13.01;100.00
72055;BME280;59936;51.490;5.436;2022-09-09T05:13:55;100393.50;;;13.02;100.00
72055;BME280;59936;51.490;5.436;2022-09-09T05:14:53;100390.72;;;13.05;100.00
72055;BME280;59936;51.490;5.436;2022-09-09T05:15:54;100394.16;;;13.06;100.00
72055;BME280;59936;51.490;5.436;2022-09-09T05:16:52;100392.31;;;13.08;100.00
72055;BME280;59936;51.490;5.436;2022-09-09T05:17:49;100394.94;;;13.08;100.00
72055;BME280;59936;51.490;5.436;2022-09-09T05:18:46;100400.25;;;13.06;100.00
72055;BME280;59936;51.490;5.436;2022-09-09T05:19:44;100399.31;;;13.07;100.00
72055;BME280;59936;51.490;5.436;2022-09-09T05:20:41;100398.41;;;13.08;100.00
72055;BME280;59936;51.490;5.436;2022-09-09T05:21:39;100399.41;;;13.06;100.00
72055;BME280;59936;51.490;5.436;2022-09-09T05:22:38;100407.16;;;13.07;100.00
72055;BME280;59936;51.490;5.436;2022-09-09T05:23:36;100393.97;;;13.09;100.00
72055;BME280;59936;51.490;5.436;2022-09-09T05:24:34;100396.69;;;13.07;100.00
72055;BME280;59936;51.490;5.436;2022-09-09T05:25:31;100391.28;;;13.10;100.00
72055;BME280;59936;51.490;5.436;2022-09-09T05:26:29;100389.41;;;13.12;100.00
72055;BME280;59936;51.490;5.436;2022-09-09T05:27:27;100397.91;;;13.16;100.00
72055;BME280;59936;51.490;5.436;2022-09-09T05:28:25;100390.91;;;13.17;100.00
72055;BME280;59936;51.490;5.436;2022-09-09T05:29:24;100393.44;;;13.18;100.00
72055;BME280;59936;51.490;5.436;2022-09-09T05:30:21;100396.06;;;13.18;100.00
72055;BME280;59936;51.490;5.436;2022-09-09T05:31:20;100396.97;;;13.17;100.00
72055;BME280;59936;51.490;5.436;2022-09-09T05:32:18;100389.22;;;13.16;100.00
72055;BME280;59936;51.490;5.436;2022-09-09T05:33:15;100394.28;;;13.19;100.00
72055;BME280;59936;51.490;5.436;2022-09-09T05:34:12;100395.38;;;13.14;100.00
72055;BME280;59936;51.490;5.436;2022-09-09T05:35:10;100389.97;;;13.18;100.00
72055;BME280;59936;51.490;5.436;2022-09-09T05:36:12;100390.53;;;13.23;100.00
72055;BME280;59936;51.490;5.436;2022-09-09T05:37:11;100390.53;;;13.23;100.00
72055;BME280;59936;51.490;5.436;2022-09-09T05:38:09;100382.75;;;13.21;100.00
72055;BME280;59936;51.490;5.436;2022-09-09T05:39:06;100388.84;;;13.22;100.00
72055;BME280;59936;51.490;5.436;2022-09-09T05:40:04;100398.47;;;13.21;100.00
72055;BME280;59936;51.490;5.436;2022-09-09T05:41:02;100393.91;;;13.25;100.00
72055;BME280;59936;51.490;5.436;2022-09-09T05:42:00;100392.41;;;13.21;100.00
72055;BME280;59936;51.490;5.436;2022-09-09T05:43:00;100390.34;;;13.26;100.00
72055;BME280;59936;51.490;5.436;2022-09-09T05:43:57;100394.56;;;13.29;100.00
72055;BME280;59936;51.490;5.436;2022-09-09T05:44:58;100395.22;;;13.32;100.00
72055;BME280;59936;51.490;5.436;2022-09-09T05:46:01;100403.00;;;13.34;100.00
72055;BME280;59936;51.490;5.436;2022-09-09T05:47:01;100402.13;;;13.33;100.00
72055;BME280;59936;51.490;5.436;2022-09-09T05:47:59;100402.88;;;13.35;100.00
72055;BME280;59936;51.490;5.436;2022-09-09T05:48:57;100402.88;;;13.35;100.00
72055;BME280;59936;51.490;5.436;2022-09-09T05:49:55;100400.25;;;13.35;100.00
72055;BME280;59936;51.490;5.436;2022-09-09T05:50:53;100407.19;;;13.36;100.00
72055;BME280;59936;51.490;5.436;2022-09-09T05:51:51;100406.25;;;13.37;100.00
72055;BME280;59936;51.490;5.436;2022-09-09T05:52:48;100407.75;;;13.42;100.00
72055;BME280;59936;51.490;5.436;2022-09-09T05:53:48;100405.88;;;13.44;100.00
72055;BME280;59936;51.490;5.436;2022-09-09T05:54:45;100398.22;;;13.41;100.00
72055;BME280;59936;51.490;5.436;2022-09-09T05:55:43;100415.44;;;13.45;100.00
72055;BME280;59936;51.490;5.436;2022-09-09T05:56:42;100412.03;;;13.43;100.00
72055;BME280;59936;51.490;5.436;2022-09-09T05:57:40;100414.66;;;13.43;100.00
72055;BME280;59936;51.490;5.436;2022-09-09T05:58:38;100410.91;;;13.47;100.00
72055;BME280;59936;51.490;5.436;2022-09-09T05:59:35;100409.25;;;13.46;100.00
72055;BME280;59936;51.490;5.436;2022-09-09T06:00:33;100411.53;;;13.52;100.00
72055;BME280;59936;51.490;5.436;2022-09-09T06:01:32;100404.41;;;13.54;100.00
72055;BME280;59936;51.490;5.436;2022-09-09T06:02:31;100415.56;;;13.58;100.00
72055;BME280;59936;51.490;5.436;2022-09-09T06:03:30;100410.94;;;13.61;100.00
72055;BME280;59936;51.490;5.436;2022-09-09T06:04:27;100413.47;;;13.63;100.00